Southport, Connecticut
Current Conditions -  °F | °C
As of 11:52 AM on Thursday 30 Oct 2014 (Local Time) from KBDR Reporting Station
Overcast Overcast  
Wind Chill: 56°   Ceiling: 7500
Heat Index: 56°   Visibility: 10mi
Dew Point: 40°   Wind: 8mph
Humidity: 55%   Direction: 350°N
Pressure: 29.98"   Gusts: NA
Location:  41.14°N, 73.28°W
Report Text: KBDR 301552Z 35007KT 10SM OVC075 13/04 A2998 RMK AO2 SLP151 T01330044
Loading
Personal Weather Stations






























Interactive Weather Map
Tropical Storm Tracking
New forecast layout! Learn more

10-Day Weather Forecast

Advertisements
Track Severe Weather on mobile